createdAt,value
2022-10-02T00:00:36.886Z,72.62
2022-10-02T00:03:28.528Z,72.58
2022-10-02T00:06:04.650Z,72.68
2022-10-02T00:08:39.446Z,72.59
2022-10-02T00:11:13.259Z,72.57
2022-10-02T00:13:49.312Z,72.62
2022-10-02T00:16:26.291Z,72.55
2022-10-02T00:18:57.030Z,72.47
2022-10-02T00:21:50.924Z,72.66
2022-10-02T00:24:26.194Z,72.71
2022-10-02T00:27:01.558Z,72.83
2022-10-02T00:29:47.381Z,72.78
2022-10-02T00:32:28.653Z,72.86
2022-10-02T00:35:21.839Z,72.80
2022-10-02T00:38:04.130Z,72.85
2022-10-02T00:40:50.036Z,72.91
2022-10-02T00:43:29.766Z,72.83
2022-10-02T00:46:15.301Z,72.73
2022-10-02T00:48:59.051Z,72.66
2022-10-02T00:51:41.188Z,72.89
2022-10-02T00:54:22.674Z,72.82
2022-10-02T00:57:02.414Z,72.87
2022-10-02T00:59:45.920Z,72.83
2022-10-02T01:02:36.444Z,72.89
2022-10-02T01:05:08.636Z,72.92
2022-10-02T01:07:43.836Z,73.01
2022-10-02T01:10:14.406Z,72.88
2022-10-02T01:12:43.247Z,72.97
2022-10-02T01:15:14.924Z,72.94
2022-10-02T01:17:44.078Z,73.04
2022-10-02T01:20:17.250Z,72.97
2022-10-02T01:22:50.839Z,73.04
2022-10-02T01:25:19.780Z,73.14
2022-10-02T01:27:49.577Z,73.03
2022-10-02T01:30:22.766Z,72.89
2022-10-02T01:32:55.833Z,73.03
2022-10-02T01:35:27.575Z,73.00
2022-10-02T01:37:56.070Z,72.88
2022-10-02T01:40:27.380Z,72.96
2022-10-02T01:42:59.688Z,72.88
2022-10-02T01:45:41.665Z,72.95
2022-10-02T01:48:17.304Z,73.01
2022-10-02T01:50:56.586Z,72.99
2022-10-02T01:53:33.021Z,73.10
2022-10-02T01:56:09.796Z,73.00
2022-10-02T01:58:49.982Z,73.15
2022-10-02T02:01:28.334Z,73.10
2022-10-02T02:04:04.091Z,73.24
2022-10-02T02:06:41.312Z,73.23
2022-10-02T02:09:16.988Z,73.24
2022-10-02T02:11:55.030Z,73.22
2022-10-02T02:14:27.769Z,73.17
2022-10-02T02:17:01.718Z,73.31
2022-10-02T02:19:34.730Z,73.20
2022-10-02T02:22:10.458Z,73.33
2022-10-02T02:24:44.201Z,73.25
2022-10-02T02:27:18.024Z,73.11
2022-10-02T02:29:50.797Z,73.08
2022-10-02T02:32:25.397Z,73.06
2022-10-02T02:34:58.406Z,73.15
2022-10-02T02:37:32.531Z,73.15
2022-10-02T02:40:08.644Z,73.15
2022-10-02T02:42:41.837Z,73.29
2022-10-02T02:45:19.845Z,73.26
2022-10-02T02:47:52.587Z,73.18
2022-10-02T02:50:26.239Z,73.15
2022-10-02T02:52:58.396Z,73.21
2022-10-02T02:55:32.642Z,73.38
2022-10-02T02:58:05.959Z,73.29
2022-10-02T03:00:34.723Z,73.25
2022-10-02T03:03:04.025Z,73.20
2022-10-02T03:05:35.250Z,73.24
2022-10-02T03:08:07.626Z,73.32
2022-10-02T03:10:45.761Z,73.23
2022-10-02T03:13:20.380Z,73.20
2022-10-02T03:15:58.393Z,73.44
2022-10-02T03:18:34.780Z,73.33
2022-10-02T03:21:11.761Z,73.36
2022-10-02T03:23:53.750Z,73.51
2022-10-02T03:26:35.137Z,73.37
2022-10-02T03:29:11.444Z,73.47
2022-10-02T03:31:41.327Z,73.47
2022-10-02T03:34:10.600Z,73.66
2022-10-02T03:36:39.370Z,73.56
2022-10-02T03:39:26.111Z,73.64
2022-10-02T03:41:55.812Z,73.70
2022-10-02T03:44:24.289Z,73.62
2022-10-02T03:47:03.972Z,73.68
2022-10-02T03:49:33.305Z,73.59
2022-10-02T03:52:02.432Z,73.58
2022-10-02T03:54:35.425Z,73.64
2022-10-02T03:57:07.757Z,73.62
2022-10-02T03:59:43.171Z,73.62
2022-10-02T04:02:21.352Z,73.43
2022-10-02T04:04:59.549Z,73.39
2022-10-02T04:07:34.361Z,73.45
2022-10-02T04:10:21.110Z,73.59
2022-10-02T04:12:52.060Z,73.73
2022-10-02T04:15:27.922Z,73.70
2022-10-02T04:18:01.283Z,73.77
2022-10-02T04:20:36.909Z,73.62
2022-10-02T04:23:16.041Z,73.67
2022-10-02T04:25:47.429Z,73.73
2022-10-02T04:28:25.107Z,73.81
2022-10-02T04:30:54.434Z,73.76
2022-10-02T04:33:27.809Z,73.82
2022-10-02T04:36:11.524Z,73.81
2022-10-02T04:38:59.479Z,73.63
2022-10-02T04:41:41.674Z,73.75
2022-10-02T04:44:21.351Z,73.78
2022-10-02T04:47:08.553Z,73.78
2022-10-02T04:49:56.380Z,73.74
2022-10-02T04:52:40.845Z,73.76
2022-10-02T04:55:37.601Z,73.68
2022-10-02T04:58:33.644Z,73.82
2022-10-02T05:01:13.863Z,73.79
2022-10-02T05:04:04.875Z,73.82
2022-10-02T05:06:52.568Z,73.92
2022-10-02T05:09:33.117Z,73.93
2022-10-02T05:12:39.143Z,73.95
2022-10-02T05:15:29.369Z,73.91
2022-10-02T05:18:17.148Z,73.84
2022-10-02T05:21:01.304Z,73.92
2022-10-02T05:23:51.910Z,73.80
2022-10-02T05:26:49.870Z,73.94
2022-10-02T05:29:45.409Z,74.03
2022-10-02T05:32:31.836Z,74.01
2022-10-02T05:35:20.680Z,74.08
2022-10-02T05:38:06.944Z,73.95
2022-10-02T05:40:43.854Z,74.00
2022-10-02T05:43:23.999Z,73.94
2022-10-02T05:45:58.698Z,73.83
2022-10-02T05:48:41.045Z,73.91
2022-10-02T05:51:18.522Z,73.78
2022-10-02T05:53:52.610Z,73.84
2022-10-02T05:56:33.414Z,73.87
2022-10-02T05:59:12.558Z,74.01
2022-10-02T06:01:53.008Z,74.08
2022-10-02T06:04:33.551Z,74.07
2022-10-02T06:07:07.867Z,74.00
2022-10-02T06:09:44.837Z,74.13
2022-10-02T06:12:17.272Z,73.99
2022-10-02T06:14:53.315Z,74.06
2022-10-02T06:17:27.060Z,74.14
2022-10-02T06:20:03.940Z,74.13
2022-10-02T06:22:43.835Z,74.07
2022-10-02T06:25:19.573Z,74.17
2022-10-02T06:27:57.690Z,74.19
2022-10-02T06:30:29.028Z,74.19
2022-10-02T06:33:04.351Z,74.09
2022-10-02T06:35:53.365Z,74.23
2022-10-02T06:38:36.341Z,74.14
2022-10-02T06:41:20.614Z,74.27
2022-10-02T06:44:23.138Z,74.28
2022-10-02T06:47:06.251Z,74.16
2022-10-02T06:49:51.676Z,74.27
2022-10-02T06:52:38.259Z,74.28
2022-10-02T06:55:33.310Z,74.16
2022-10-02T06:58:24.512Z,74.03
2022-10-02T07:01:05.181Z,74.03
2022-10-02T07:03:49.525Z,74.19
2022-10-02T07:06:33.708Z,73.99
2022-10-02T07:09:58.064Z,73.93
2022-10-02T07:12:57.336Z,74.33
2022-10-02T07:15:40.102Z,74.45
2022-10-02T07:18:21.955Z,74.25
2022-10-02T07:21:01.158Z,74.47
2022-10-02T07:23:51.334Z,74.43
2022-10-02T07:26:49.077Z,74.53
2022-10-02T07:29:43.305Z,74.46
2022-10-02T07:32:40.593Z,74.47
2022-10-02T07:35:39.329Z,74.39
2022-10-02T07:38:42.623Z,74.37
2022-10-02T07:41:50.621Z,74.47
2022-10-02T07:44:35.118Z,74.40
2022-10-02T07:47:15.333Z,74.38
2022-10-02T07:49:51.660Z,74.53
2022-10-02T07:52:29.169Z,74.34
2022-10-02T07:55:13.472Z,74.44
2022-10-02T07:57:52.271Z,74.27
2022-10-02T08:00:28.643Z,74.37
2022-10-02T08:03:00.998Z,74.50
2022-10-02T08:05:34.159Z,74.26
2022-10-02T08:08:09.545Z,74.44
2022-10-02T08:10:43.658Z,74.37
2022-10-02T08:13:19.964Z,74.38
2022-10-02T08:15:54.905Z,74.45
2022-10-02T08:18:35.773Z,74.51
2022-10-02T08:21:09.852Z,74.46
2022-10-02T08:23:43.501Z,74.33
2022-10-02T08:26:19.303Z,74.34
2022-10-02T08:29:00.911Z,74.45
2022-10-02T08:31:41.763Z,74.36
2022-10-02T08:34:20.542Z,74.47
2022-10-02T08:37:04.172Z,74.61
2022-10-02T08:39:50.080Z,74.36
2022-10-02T08:42:54.424Z,74.54
2022-10-02T08:45:52.092Z,74.28
2022-10-02T08:49:01.693Z,74.29
2022-10-02T08:51:56.882Z,74.42
2022-10-02T08:54:52.724Z,74.18
2022-10-02T08:57:57.303Z,74.38
2022-10-02T09:00:38.028Z,74.63
2022-10-02T09:03:35.908Z,74.67
2022-10-02T09:06:38.312Z,74.65
2022-10-02T09:09:49.646Z,75.05
2022-10-02T09:12:45.238Z,74.62
2022-10-02T09:15:18.441Z,74.17
2022-10-02T09:18:11.925Z,73.89
2022-10-02T09:21:11.700Z,73.72
2022-10-02T09:24:16.765Z,73.86
2022-10-02T09:27:21.990Z,73.60
2022-10-02T09:30:11.700Z,73.75
2022-10-02T09:33:20.480Z,73.99
2022-10-02T09:36:25.239Z,74.73
2022-10-02T09:39:18.414Z,75.00
2022-10-02T09:42:33.735Z,74.69
2022-10-02T09:45:38.125Z,74.78
2022-10-02T09:48:47.626Z,75.14
2022-10-02T09:51:47.472Z,74.89
2022-10-02T09:54:41.734Z,74.59
2022-10-02T09:57:58.966Z,73.37
2022-10-02T10:00:51.443Z,72.14
2022-10-02T10:03:44.036Z,71.93
2022-10-02T10:07:02.146Z,71.82
2022-10-02T10:10:05.870Z,71.87
2022-10-02T10:13:03.367Z,71.89
2022-10-02T10:16:18.996Z,71.96
2022-10-02T10:19:22.991Z,73.12
2022-10-02T10:22:27.205Z,73.23
2022-10-02T10:25:33.204Z,73.40
2022-10-02T10:28:37.510Z,73.10
2022-10-02T10:31:52.856Z,72.26
2022-10-02T10:34:51.974Z,72.16
2022-10-02T10:38:03.283Z,72.09
2022-10-02T10:40:38.298Z,72.07
2022-10-02T10:43:41.656Z,71.80
2022-10-02T10:46:38.810Z,71.81
2022-10-02T10:49:22.955Z,71.54
2022-10-02T10:52:03.431Z,71.12
2022-10-02T10:54:52.999Z,70.90
2022-10-02T10:57:34.341Z,70.73
2022-10-02T11:00:18.260Z,71.19
2022-10-02T11:03:08.560Z,71.35
2022-10-02T11:06:05.078Z,71.76
2022-10-02T11:09:04.173Z,71.73
2022-10-02T11:11:39.428Z,71.89
2022-10-02T11:14:28.296Z,71.63
2022-10-02T11:17:14.934Z,71.97
2022-10-02T11:20:04.611Z,71.84
2022-10-02T11:23:01.200Z,71.73
2022-10-02T11:25:42.584Z,70.99
2022-10-02T11:28:28.256Z,70.82
2022-10-02T11:31:17.455Z,70.91
2022-10-02T11:34:09.192Z,71.55
2022-10-02T11:36:52.047Z,71.69
2022-10-02T11:39:35.615Z,71.36
2022-10-02T11:42:18.475Z,70.95
2022-10-02T11:45:07.954Z,70.66
2022-10-02T11:47:54.925Z,70.87
2022-10-02T11:50:47.104Z,70.47
2022-10-02T11:53:41.089Z,70.43
2022-10-02T11:56:30.988Z,70.37
2022-10-02T11:59:21.973Z,70.57
2022-10-02T12:01:57.742Z,70.54
2022-10-02T12:04:42.581Z,70.29
2022-10-02T12:07:26.082Z,70.37
2022-10-02T12:10:14.090Z,70.28
2022-10-02T12:12:51.003Z,70.37
2022-10-02T12:15:30.357Z,70.79
2022-10-02T12:18:12.652Z,70.60
2022-10-02T12:21:13.906Z,70.74
2022-10-02T12:24:08.401Z,70.70
2022-10-02T12:26:59.754Z,70.59
2022-10-02T12:29:40.627Z,70.60
2022-10-02T12:32:22.721Z,70.42
2022-10-02T12:35:06.728Z,70.40
2022-10-02T12:37:43.543Z,70.44
2022-10-02T12:40:21.454Z,70.33
2022-10-02T12:43:16.034Z,69.76
2022-10-02T12:46:21.762Z,69.95
2022-10-02T12:49:04.389Z,70.16
2022-10-02T12:51:46.681Z,70.01
2022-10-02T12:54:47.871Z,70.22
2022-10-02T12:57:58.403Z,70.14
2022-10-02T13:00:45.392Z,70.06
2022-10-02T13:03:38.876Z,70.55
2022-10-02T13:06:47.534Z,70.25
2022-10-02T13:09:36.003Z,70.42
2022-10-02T13:12:19.951Z,70.92
2022-10-02T13:15:16.607Z,70.97
2022-10-02T13:17:52.803Z,70.82
2022-10-02T13:20:37.473Z,70.71
2022-10-02T13:23:19.150Z,70.93
2022-10-02T13:25:58.699Z,71.23
2022-10-02T13:28:51.187Z,71.26
2022-10-02T13:31:39.307Z,70.79
2022-10-02T13:34:16.089Z,70.84
2022-10-02T13:36:57.092Z,70.80
2022-10-02T13:39:41.083Z,70.89
2022-10-02T13:42:22.059Z,70.94
2022-10-02T13:45:01.303Z,70.65
2022-10-02T13:47:39.733Z,70.73
2022-10-02T13:50:29.782Z,70.40
2022-10-02T13:53:13.897Z,70.64
2022-10-02T13:55:44.694Z,70.59
2022-10-02T13:58:26.612Z,70.65
2022-10-02T14:01:10.220Z,70.85
2022-10-02T14:03:55.042Z,70.62
2022-10-02T14:06:27.578Z,70.57
2022-10-02T14:09:23.296Z,70.77
2022-10-02T14:12:19.198Z,70.81
2022-10-02T14:15:19.721Z,70.80
2022-10-02T14:18:04.827Z,70.42
2022-10-02T14:20:44.899Z,70.57
2022-10-02T14:23:34.980Z,70.56
2022-10-02T14:26:18.831Z,70.29
2022-10-02T14:29:12.264Z,70.52
2022-10-02T14:32:05.201Z,70.53
2022-10-02T14:34:55.233Z,70.59
2022-10-02T14:37:52.332Z,70.57
2022-10-02T14:40:20.962Z,70.38
2022-10-02T14:43:07.932Z,70.56
2022-10-02T14:45:58.960Z,70.21
2022-10-02T14:48:51.516Z,70.55
2022-10-02T14:51:40.866Z,70.16
2022-10-02T14:54:26.565Z,70.34
2022-10-02T14:57:09.044Z,70.17
2022-10-02T14:59:59.770Z,70.30
2022-10-02T15:02:46.067Z,70.29
2022-10-02T15:05:35.840Z,70.25
2022-10-02T15:08:12.525Z,70.31
2022-10-02T15:10:42.500Z,70.21
2022-10-02T15:13:23.584Z,70.19
2022-10-02T15:16:13.446Z,70.26
2022-10-02T15:18:49.046Z,70.61
2022-10-02T15:21:26.395Z,70.42
2022-10-02T15:23:58.224Z,70.34
2022-10-02T15:26:46.994Z,70.40
2022-10-02T15:29:20.777Z,70.33
2022-10-02T15:32:19.731Z,70.47
2022-10-02T15:34:59.188Z,70.26
2022-10-02T15:37:35.426Z,70.15
2022-10-02T15:40:17.280Z,70.32
2022-10-02T15:42:52.464Z,70.42
2022-10-02T15:45:39.476Z,70.38
2022-10-02T15:48:37.596Z,70.40
2022-10-02T15:51:23.559Z,70.30
2022-10-02T15:53:59.466Z,70.20
2022-10-02T15:56:48.430Z,70.30
2022-10-02T15:59:39.629Z,70.39
2022-10-02T16:02:33.004Z,70.30
2022-10-02T16:05:17.843Z,70.27
2022-10-02T16:08:19.488Z,70.46
2022-10-02T16:11:19.113Z,70.31
2022-10-02T16:13:51.324Z,70.53
2022-10-02T16:16:50.240Z,70.49
2022-10-02T16:19:33.061Z,70.42
2022-10-02T16:22:18.070Z,70.37
2022-10-02T16:25:03.789Z,70.49
2022-10-02T16:27:51.462Z,70.41
2022-10-02T16:30:22.071Z,70.50
2022-10-02T16:33:08.965Z,70.26
2022-10-02T16:35:56.057Z,70.05
2022-10-02T16:38:39.990Z,70.32
2022-10-02T16:41:24.968Z,70.49
2022-10-02T16:44:07.410Z,70.56
2022-10-02T16:46:44.655Z,70.57
2022-10-02T16:49:24.583Z,70.73
2022-10-02T16:52:02.818Z,70.69
2022-10-02T16:54:43.655Z,70.34
2022-10-02T16:57:24.494Z,70.42
2022-10-02T17:00:02.501Z,70.50
2022-10-02T17:02:42.771Z,70.78
2022-10-02T17:05:23.248Z,70.73
2022-10-02T17:07:59.359Z,70.70
2022-10-02T17:10:52.731Z,70.86
2022-10-02T17:13:32.673Z,70.84
2022-10-02T17:16:11.275Z,70.85
2022-10-02T17:18:46.739Z,70.75
2022-10-02T17:21:21.504Z,70.77
2022-10-02T17:24:16.006Z,70.82
2022-10-02T17:26:50.036Z,70.98
2022-10-02T17:29:27.227Z,70.84
2022-10-02T17:31:58.034Z,70.86
2022-10-02T17:34:32.409Z,70.80
2022-10-02T17:37:22.413Z,70.74
2022-10-02T17:40:05.003Z,70.42
2022-10-02T17:42:49.668Z,70.48
2022-10-02T17:45:33.128Z,70.60
2022-10-02T17:48:19.605Z,70.65
2022-10-02T17:51:31.031Z,70.81
2022-10-02T17:54:38.038Z,70.58
2022-10-02T17:57:22.183Z,70.28
2022-10-02T18:00:10.063Z,70.34
2022-10-02T18:03:03.539Z,70.48
2022-10-02T18:05:49.339Z,70.35
2022-10-02T18:08:41.859Z,70.27
2022-10-02T18:11:30.080Z,70.57
2022-10-02T18:14:20.321Z,70.85
2022-10-02T18:17:06.038Z,70.96
2022-10-02T18:19:49.227Z,71.17
2022-10-02T18:22:58.121Z,71.10
2022-10-02T18:25:38.365Z,71.12
2022-10-02T18:28:30.458Z,71.07
2022-10-02T18:31:33.214Z,71.04
2022-10-02T18:34:26.617Z,71.03
2022-10-02T18:37:15.306Z,70.83
2022-10-02T18:40:06.904Z,70.70
2022-10-02T18:42:52.126Z,70.58
2022-10-02T18:45:35.796Z,70.58
2022-10-02T18:48:19.916Z,70.78
2022-10-02T18:51:04.255Z,70.66
2022-10-02T18:54:11.117Z,70.86
2022-10-02T18:56:52.072Z,70.83
2022-10-02T18:59:33.009Z,70.83
2022-10-02T19:02:16.423Z,70.94
2022-10-02T19:05:03.928Z,71.02
2022-10-02T19:07:41.533Z,71.13
2022-10-02T19:10:28.261Z,71.27
2022-10-02T19:13:17.295Z,71.36
2022-10-02T19:15:48.274Z,71.52
2022-10-02T19:18:19.289Z,71.71
2022-10-02T19:20:56.829Z,71.64
2022-10-02T19:23:33.287Z,71.69
2022-10-02T19:26:06.013Z,71.70
2022-10-02T19:28:45.233Z,71.63
2022-10-02T19:31:22.598Z,71.75
2022-10-02T19:33:54.497Z,71.81
2022-10-02T19:36:26.377Z,71.74
2022-10-02T19:38:59.034Z,71.71
2022-10-02T19:41:34.073Z,71.58
2022-10-02T19:44:06.695Z,71.46
2022-10-02T19:46:49.414Z,71.57
2022-10-02T19:49:23.517Z,71.56
2022-10-02T19:51:54.278Z,71.66
2022-10-02T19:54:29.174Z,71.80
2022-10-02T19:57:01.530Z,71.73
2022-10-02T19:59:41.234Z,71.70
2022-10-02T20:02:15.397Z,71.88
2022-10-02T20:04:44.356Z,71.84
2022-10-02T20:07:17.496Z,71.90
2022-10-02T20:09:51.095Z,71.85
2022-10-02T20:12:25.053Z,71.78
2022-10-02T20:14:59.264Z,71.86
2022-10-02T20:17:29.406Z,71.85
2022-10-02T20:20:02.206Z,71.77
2022-10-02T20:22:37.302Z,71.97
2022-10-02T20:25:11.200Z,71.98
2022-10-02T20:27:45.271Z,72.07
2022-10-02T20:30:17.167Z,71.92
2022-10-02T20:32:52.353Z,72.09
2022-10-02T20:35:26.561Z,72.10
2022-10-02T20:37:58.898Z,72.23
2022-10-02T20:40:36.500Z,72.26
2022-10-02T20:43:14.598Z,72.17
2022-10-02T20:45:46.462Z,72.22
2022-10-02T20:49:07.383Z,72.23
2022-10-02T20:52:13.330Z,72.35
2022-10-02T20:54:56.695Z,72.42
2022-10-02T20:58:09.728Z,72.33
2022-10-02T21:00:53.689Z,72.22
2022-10-02T21:04:08.927Z,72.14
2022-10-02T21:06:53.393Z,72.37
2022-10-02T21:10:03.243Z,72.16
2022-10-02T21:13:15.983Z,72.34
2022-10-02T21:16:10.983Z,72.18
2022-10-02T21:19:12.957Z,72.23
2022-10-02T21:22:33.593Z,72.34
2022-10-02T21:25:20.275Z,72.27
2022-10-02T21:28:30.963Z,72.15
2022-10-02T21:31:15.494Z,72.10
2022-10-02T21:33:57.287Z,72.39
2022-10-02T21:36:32.336Z,72.38
2022-10-02T21:39:27.018Z,72.22
2022-10-02T21:42:23.171Z,72.26
2022-10-02T21:45:41.384Z,72.28
2022-10-02T21:48:46.343Z,72.30
2022-10-02T21:51:45.987Z,72.28
2022-10-02T21:54:43.669Z,72.20
2022-10-02T21:57:40.851Z,72.31
2022-10-02T22:00:15.590Z,72.31
2022-10-02T22:03:11.787Z,72.29
2022-10-02T22:06:06.123Z,72.26
2022-10-02T22:08:45.637Z,72.26
2022-10-02T22:11:23.566Z,72.19
2022-10-02T22:13:52.840Z,72.31
2022-10-02T22:16:28.730Z,72.25
2022-10-02T22:19:04.595Z,72.39
2022-10-02T22:21:48.195Z,72.52
2022-10-02T22:24:32.979Z,72.34
2022-10-02T22:27:16.228Z,72.44
2022-10-02T22:29:48.046Z,72.45
2022-10-02T22:33:02.685Z,72.56
2022-10-02T22:35:44.009Z,72.58
2022-10-02T22:38:18.920Z,72.57
2022-10-02T22:40:56.289Z,72.51
2022-10-02T22:43:32.958Z,72.62
2022-10-02T22:46:05.208Z,72.54
2022-10-02T22:48:39.398Z,72.64
2022-10-02T22:51:16.353Z,72.62
2022-10-02T22:53:49.971Z,72.60
2022-10-02T22:56:28.098Z,72.52
2022-10-02T22:58:59.714Z,72.44
2022-10-02T23:01:40.800Z,72.54
2022-10-02T23:04:21.799Z,72.51
2022-10-02T23:06:55.481Z,72.43
2022-10-02T23:09:34.316Z,72.54
2022-10-02T23:12:11.522Z,72.38
2022-10-02T23:14:52.437Z,72.63
2022-10-02T23:17:27.834Z,72.50
2022-10-02T23:20:03.686Z,72.57
2022-10-02T23:22:37.468Z,72.53
2022-10-02T23:25:21.171Z,72.51
2022-10-02T23:27:58.145Z,72.58
2022-10-02T23:30:29.537Z,72.54
2022-10-02T23:33:04.663Z,72.79
2022-10-02T23:35:38.651Z,72.92
2022-10-02T23:38:16.354Z,72.89
2022-10-02T23:41:25.594Z,72.75
2022-10-02T23:44:07.202Z,72.94
2022-10-02T23:46:55.702Z,72.91
2022-10-02T23:49:29.948Z,72.97
2022-10-02T23:52:13.935Z,72.86
2022-10-02T23:55:00.221Z,72.97
2022-10-02T23:57:43.379Z,72.96
